Silver Bergen — LAHO6 — position and weather

sailwx.info

Track history (hours):
 
Tides and Currents Weather Stations Pressure Air Temp Water Temp Dewpoint Dewpoint Depression Visibility Wind Speed Wind Dir Waves Ship Positions

Silver Bergen

Last reported at 2016-Feb-08 10:33 UTC. Time now 2016-Feb-09 17:54 UTC.
Position N 59°21' E 004°42'.

Length 98 m; draft 4.8 m.

Type: Cargo ship. MMSI: 257951000.

Date/timePositionNaut miles runAvg speedWind from/ knotsBaromVisibWave heightAir tempDewpointWater temp
2016-Feb-08 10:33N 59°21' E 004°42'1313.3
2016-Feb-08 09:33N 59°09' E 004°49'1413.8
2016-Feb-08 08:33N 58°57' E 005°04'1414.0
2016-Feb-08 07:34N 58°45' E 005°19'1515.0
2016-Feb-08 06:34N 58°33' E 005°34'1514.2
2016-Feb-08 05:30N 58°21' E 005°52'1313.6
2016-Feb-08 04:33N 58°13' E 006°11'1312.8
2016-Feb-08 03:33N 58°04' E 006°29'1111.0
2016-Feb-08 02:33N 57°59' E 006°47'1111.0
2016-Feb-08 01:33N 57°55' E 007°07'10 9.8
2016-Feb-08 00:33N 57°55' E 007°25'9211.4
2016-Feb-07 16:27N 57°50' E 010°18'1011.0
2016-Feb-07 15:33N 57°49' E 010°36'9 8.3
2016-Feb-07 14:32N 57°42' E 010°45'8 8.0
2016-Feb-07 13:34N 57°36' E 010°55'1414.1
2016-Feb-07 12:33N 57°31' E 011°20'1413.6
2016-Feb-07 11:33N 57°20' E 011°33'1514.7
2016-Feb-07 10:33N 57°06' E 011°43'1414.2
2016-Feb-07 09:33N 56°53' E 011°53'1414.0
2016-Feb-07 08:33N 56°40' E 012°04'1414.2
2016-Feb-07 07:33N 56°27' E 012°15'1514.8
2016-Feb-07 06:33N 56°14' E 012°27'1515.5
2016-Feb-07 05:33N 56°01' E 012°41'1414.4
2016-Feb-07 04:33N 55°46' E 012°43'1312.5
2016-Feb-07 03:33N 55°34' E 012°42'1212.2
2016-Feb-07 02:33N 55°22' E 012°40'1313.0
2016-Feb-07 01:33N 55°09' E 012°45'1812.9
2016-Feb-07 00:11N 54°55' E 013°03'2312.8
2016-Feb-06 22:25N 54°43' E 013°37'1213.5
2016-Feb-06 21:32N 54°32' E 013°47'1712.7
2016-Feb-06 20:10N 54°18' E 014°04'712.2
2016-Feb-06 19:33N 54°12' E 014°12'1313.5
2016-Feb-06 18:33N 53°59' E 014°16'9 8.7
2016-Feb-06 17:33N 53°51' E 014°17'1111.1
2016-Feb-06 16:33N 53°42' E 014°29'1110.8
2016-Feb-06 15:34N 53°32' E 014°38'7 7.1
2016-Feb-06 14:34N 53°26' E 014°35'0 0.0
2016-Feb-06 13:33N 53°26' E 014°35'0 0.0
2016-Feb-06 11:32N 53°26' E 014°35'0 0.0
2016-Feb-06 10:32N 53°26' E 014°35'0 0.0
2016-Feb-06 09:32N 53°26' E 014°35'0 0.0
2016-Feb-06 08:32N 53°26' E 014°35'0 0.0
2016-Feb-06 07:33N 53°26' E 014°35'0 0.0
2016-Feb-06 06:32N 53°26' E 014°35'0 0.0
2016-Feb-06 05:33N 53°26' E 014°35'0 0.0
2016-Feb-06 04:33N 53°26' E 014°35'0 0.0
2016-Feb-06 03:33N 53°26' E 014°35'0 0.0
2016-Feb-06 02:33N 53°26' E 014°35'0 0.0
2016-Feb-06 01:33N 53°26' E 014°35'0 0.0
2016-Feb-06 00:33N 53°26' E 014°35'0 0.0
2016-Feb-05 23:32N 53°26' E 014°35'0 0.0
2016-Feb-05 22:32N 53°26' E 014°35'0 0.0
2016-Feb-05 21:33N 53°26' E 014°35'0 0.0
2016-Feb-05 20:33N 53°26' E 014°35'0 0.0
2016-Feb-05 19:33N 53°26' E 014°35'0 0.0
2016-Feb-05 18:30N 53°26' E 014°35'0 0.0
2016-Feb-05 17:32N 53°26' E 014°35'0 0.0
2016-Feb-05 16:33N 53°26' E 014°35'0 0.0
2016-Feb-05 15:32N 53°26' E 014°35'0 0.0
2016-Feb-05 14:32N 53°26' E 014°35'0 0.0
2016-Feb-05 13:32N 53°26' E 014°35'0 0.0
2016-Feb-05 12:32N 53°26' E 014°34'0 0.0
2016-Feb-05 11:32N 53°26' E 014°35'0 0.0
2016-Feb-05 10:33N 53°26' E 014°35'0 0.0
2016-Feb-05 09:32N 53°26' E 014°35'0 0.0
2016-Feb-05 08:32N 53°26' E 014°35'0 0.0
2016-Feb-05 07:32N 53°26' E 014°35'0 0.0
2016-Feb-05 06:32N 53°26' E 014°35'0 0.0
2016-Feb-05 05:33N 53°26' E 014°35'0 0.0
2016-Feb-05 04:32N 53°26' E 014°35'0 0.0
2016-Feb-05 03:32N 53°26' E 014°35'0 0.0
2016-Feb-05 02:33N 53°26' E 014°35'0 0.0
2016-Feb-05 01:33N 53°26' E 014°35'0 0.0
2016-Feb-05 00:33N 53°26' E 014°35'5 5.5
2016-Feb-04 23:34N 53°31' E 014°38'10 9.7
2016-Feb-04 22:34N 53°40' E 014°32'1212.1
2016-Feb-04 21:34N 53°49' E 014°19'8 8.3
2016-Feb-04 20:34N 53°57' E 014°16'1212.3
2016-Feb-04 19:33N 54°09' E 014°12'7213.1
2016-Feb-04 14:05N 55°01' E 012°47'1013.9
2016-Feb-04 13:22N 55°10' E 012°39'1214.1
2016-Feb-04 12:34N 55°22' E 012°38'1313.1
2016-Feb-04 11:33N 55°35' E 012°42'1111.4
2016-Feb-04 10:34N 55°46' E 012°41'1414.0
2016-Feb-04 09:33N 55°60' E 012°38'1413.8
2016-Feb-04 08:33N 56°11' E 012°22'2613.2
2016-Feb-04 06:33N 56°33' E 011°57'1414.1
2016-Feb-04 05:33N 56°47' E 011°50'1413.9
2016-Feb-04 04:33N 56°59' E 011°40'1414.0
2016-Feb-04 03:33N 57°12' E 011°29'1414.0
2016-Feb-04 02:33N 57°25' E 011°19'1313.5
2016-Feb-04 01:33N 57°36' E 011°05'1514.4
2016-Feb-04 00:29N 57°46' E 010°44'11214.0
2016-Feb-03 16:29N 57°51' E 007°13'1213.0
2016-Feb-03 15:34N 57°51' E 006°50'1212.3
2016-Feb-03 14:33N 57°54' E 006°27'1313.2
2016-Feb-03 13:33N 57°60' E 006°06'  
Track history (hours):
 
Tides and Currents Weather Stations Pressure Air Temp Water Temp Dewpoint Dewpoint Depression Visibility Wind Speed Wind Dir Waves Ship Positions

Silver Bergen

Last reported at 2016-Feb-08 10:33 UTC. Time now 2016-Feb-09 17:54 UTC.
Position N 59°21' E 004°42'.

Length 98 m; draft 4.8 m.

Type: Cargo ship. MMSI: 257951000.

Date/timePositionNaut miles runAvg speedWind from/ knotsBaromVisibWave heightAir tempDewpointWater temp
2016-Feb-08 10:33N 59°21' E 004°42'1313.3
2016-Feb-08 09:33N 59°09' E 004°49'1413.8
2016-Feb-08 08:33N 58°57' E 005°04'1414.0
2016-Feb-08 07:34N 58°45' E 005°19'1515.0
2016-Feb-08 06:34N 58°33' E 005°34'1514.2
2016-Feb-08 05:30N 58°21' E 005°52'1313.6
2016-Feb-08 04:33N 58°13' E 006°11'1312.8
2016-Feb-08 03:33N 58°04' E 006°29'1111.0
2016-Feb-08 02:33N 57°59' E 006°47'1111.0
2016-Feb-08 01:33N 57°55' E 007°07'10 9.8
2016-Feb-08 00:33N 57°55' E 007°25'9211.4
2016-Feb-07 16:27N 57°50' E 010°18'1011.0
2016-Feb-07 15:33N 57°49' E 010°36'9 8.3
2016-Feb-07 14:32N 57°42' E 010°45'8 8.0
2016-Feb-07 13:34N 57°36' E 010°55'1414.1
2016-Feb-07 12:33N 57°31' E 011°20'1413.6
2016-Feb-07 11:33N 57°20' E 011°33'1514.7
2016-Feb-07 10:33N 57°06' E 011°43'1414.2
2016-Feb-07 09:33N 56°53' E 011°53'1414.0
2016-Feb-07 08:33N 56°40' E 012°04'1414.2
2016-Feb-07 07:33N 56°27' E 012°15'1514.8
2016-Feb-07 06:33N 56°14' E 012°27'1515.5
2016-Feb-07 05:33N 56°01' E 012°41'1414.4
2016-Feb-07 04:33N 55°46' E 012°43'1312.5
2016-Feb-07 03:33N 55°34' E 012°42'1212.2
2016-Feb-07 02:33N 55°22' E 012°40'1313.0
2016-Feb-07 01:33N 55°09' E 012°45'1812.9
2016-Feb-07 00:11N 54°55' E 013°03'2312.8
2016-Feb-06 22:25N 54°43' E 013°37'1213.5
2016-Feb-06 21:32N 54°32' E 013°47'1712.7
2016-Feb-06 20:10N 54°18' E 014°04'712.2
2016-Feb-06 19:33N 54°12' E 014°12'1313.5
2016-Feb-06 18:33N 53°59' E 014°16'9 8.7
2016-Feb-06 17:33N 53°51' E 014°17'1111.1
2016-Feb-06 16:33N 53°42' E 014°29'1110.8
2016-Feb-06 15:34N 53°32' E 014°38'7 7.1
2016-Feb-06 14:34N 53°26' E 014°35'0 0.0
2016-Feb-06 13:33N 53°26' E 014°35'0 0.0
2016-Feb-06 11:32N 53°26' E 014°35'0 0.0
2016-Feb-06 10:32N 53°26' E 014°35'0 0.0
2016-Feb-06 09:32N 53°26' E 014°35'0 0.0
2016-Feb-06 08:32N 53°26' E 014°35'0 0.0
2016-Feb-06 07:33N 53°26' E 014°35'0 0.0
2016-Feb-06 06:32N 53°26' E 014°35'0 0.0
2016-Feb-06 05:33N 53°26' E 014°35'0 0.0
2016-Feb-06 04:33N 53°26' E 014°35'0 0.0
2016-Feb-06 03:33N 53°26' E 014°35'0 0.0
2016-Feb-06 02:33N 53°26' E 014°35'0 0.0
2016-Feb-06 01:33N 53°26' E 014°35'0 0.0
2016-Feb-06 00:33N 53°26' E 014°35'0 0.0
2016-Feb-05 23:32N 53°26' E 014°35'0 0.0
2016-Feb-05 22:32N 53°26' E 014°35'0 0.0
2016-Feb-05 21:33N 53°26' E 014°35'0 0.0
2016-Feb-05 20:33N 53°26' E 014°35'0 0.0
2016-Feb-05 19:33N 53°26' E 014°35'0 0.0
2016-Feb-05 18:30N 53°26' E 014°35'0 0.0
2016-Feb-05 17:32N 53°26' E 014°35'0 0.0
2016-Feb-05 16:33N 53°26' E 014°35'0 0.0
2016-Feb-05 15:32N 53°26' E 014°35'0 0.0
2016-Feb-05 14:32N 53°26' E 014°35'0 0.0
2016-Feb-05 13:32N 53°26' E 014°35'0 0.0
2016-Feb-05 12:32N 53°26' E 014°34'0 0.0
2016-Feb-05 11:32N 53°26' E 014°35'0 0.0
2016-Feb-05 10:33N 53°26' E 014°35'0 0.0
2016-Feb-05 09:32N 53°26' E 014°35'0 0.0
2016-Feb-05 08:32N 53°26' E 014°35'0 0.0
2016-Feb-05 07:32N 53°26' E 014°35'0 0.0
2016-Feb-05 06:32N 53°26' E 014°35'0 0.0
2016-Feb-05 05:33N 53°26' E 014°35'0 0.0
2016-Feb-05 04:32N 53°26' E 014°35'0 0.0
2016-Feb-05 03:32N 53°26' E 014°35'0 0.0
2016-Feb-05 02:33N 53°26' E 014°35'0 0.0
2016-Feb-05 01:33N 53°26' E 014°35'0 0.0
2016-Feb-05 00:33N 53°26' E 014°35'5 5.5
2016-Feb-04 23:34N 53°31' E 014°38'10 9.7
2016-Feb-04 22:34N 53°40' E 014°32'1212.1
2016-Feb-04 21:34N 53°49' E 014°19'8 8.3
2016-Feb-04 20:34N 53°57' E 014°16'1212.3
2016-Feb-04 19:33N 54°09' E 014°12'7213.1
2016-Feb-04 14:05N 55°01' E 012°47'1013.9
2016-Feb-04 13:22N 55°10' E 012°39'1214.1
2016-Feb-04 12:34N 55°22' E 012°38'1313.1
2016-Feb-04 11:33N 55°35' E 012°42'1111.4
2016-Feb-04 10:34N 55°46' E 012°41'1414.0
2016-Feb-04 09:33N 55°60' E 012°38'1413.8
2016-Feb-04 08:33N 56°11' E 012°22'2613.2
2016-Feb-04 06:33N 56°33' E 011°57'1414.1
2016-Feb-04 05:33N 56°47' E 011°50'1413.9
2016-Feb-04 04:33N 56°59' E 011°40'1414.0
2016-Feb-04 03:33N 57°12' E 011°29'1414.0
2016-Feb-04 02:33N 57°25' E 011°19'1313.5
2016-Feb-04 01:33N 57°36' E 011°05'1514.4
2016-Feb-04 00:29N 57°46' E 010°44'11214.0
2016-Feb-03 16:29N 57°51' E 007°13'1213.0
2016-Feb-03 15:34N 57°51' E 006°50'1212.3
2016-Feb-03 14:33N 57°54' E 006°27'1313.2
2016-Feb-03 13:33N 57°60' E 006°06'  

Dump ship's entire track history